ROMMA est une association bénévole à but non lucratif. Votre soutien est indispensable : ADHERER à ROMMA ou FAIRE un DON

La Beaume - (05, Hautes Alpes)

Buëch (820 m)   Longitude: 5° 40' 9'' E   Latitude: 44° 32' 3'' N Station partenaire n°75
 

Détail journalier du     <<     >>

Température Precipitation Humidité Pression Vent Dir Rafale Dir. rafale Ensol.
Heure (°C) (mm) (%) (hPa) (km/h) (km/h) (min)
01:00 15.8077101016SSE29SSO0
02:00 15.7075101018SSE29SSE0
03:00 15.3075101015SSE27S0
04:00 15.1075100913SSE26SE0
05:00 15.2072100912SSE26SSE0
06:00 15.50.473101014SSE27S0
07:00 14.008110096SE24SSE0
08:00 15.1076100911SSE32S0
09:00 16.2071100919S47S0
10:00 16.8067101023S42S0
11:00 17.7061100927S47S60
12:00 17.9062100927S53S30
13:00 18.4063100926S48S0
14:00 19.4061100925SSE52S0
15:00 19.9058100823SSE53S0
16:00 19.7058100926S45S0
17:00 19.5056100927S60SSE0
18:00 18.7058100925S47S0
19:00 17.3069101122S47SSO0
20:00 15.50.280101219S35S0
21:00 14.52.486101218S37S0
22:00 14.1389101115S31S0
23:00 14.02.488101010S32S0
minuit 13.54.291101212S32S0

Graphique du 20-10-2019

 

Serveur OMMA